GMMD

Beni Mellal Airport

Morocco
METAR GMMD 221800Z 30008KT 9999 BKN026 20/12 Q1011 NOSIG
Observed Flight Rules
Apr-22 @ 18:00 UTC (21 minutes ago) Marginal Visual Flight Rules
Wind Visibility Clouds
300° at 8 knots 10,000+ meters
  • Broken at 2,600' AGL
Temperatures Readings
Current 20°C / 68°F
Dewpoint 12°C / 54°F
Humidity 60%
Altimeter 29.85" Hg
Pressure 1011 hPa
Elevation 509
METAR GMMD 221800Z 30008KT 9999 BKN026 20/12 Q1011 NOSIG
Observed Flight Rules
Apr-22 @ 18:00 UTC
(21 minutes ago)
MVFR
Wind Visibility
300° at 8 knots 10,000+ meters
Clouds
  • Broken at 2,600' AGL
Temperature Dewpoint
20°C / 68°F 12°C / 54°F
Humidity Altimeter Pressure
60% 29.85" Hg 1011 hPa